sensor_id;sensor_type;location;lat;lon;timestamp;pressure;altitude;pressure_sealevel;temperature;humidity
11810;BME280;5962;41.566;23.734;2023-11-21T00:01:04;95283.28;;;3.87;100.00
11810;BME280;5962;41.566;23.734;2023-11-21T00:03:36;95280.66;;;3.87;100.00
11810;BME280;5962;41.566;23.734;2023-11-21T00:06:05;95283.50;;;3.86;100.00
11810;BME280;5962;41.566;23.734;2023-11-21T00:08:35;95280.88;;;3.86;100.00
11810;BME280;5962;41.566;23.734;2023-11-21T00:11:03;95282.06;;;3.90;100.00
11810;BME280;5962;41.566;23.734;2023-11-21T00:13:32;95283.66;;;3.84;100.00
11810;BME280;5962;41.566;23.734;2023-11-21T00:16:01;95278.03;;;3.81;100.00
11810;BME280;5962;41.566;23.734;2023-11-21T00:18:29;95280.03;;;3.79;100.00
11810;BME280;5962;41.566;23.734;2023-11-21T00:20:58;95286.88;;;3.73;100.00
11810;BME280;5962;41.566;23.734;2023-11-21T00:23:26;95291.34;;;3.73;100.00
11810;BME280;5962;41.566;23.734;2023-11-21T00:25:54;95297.75;;;3.70;100.00
11810;BME280;5962;41.566;23.734;2023-11-21T00:28:22;95294.34;;;3.70;100.00
11810;BME280;5962;41.566;23.734;2023-11-21T00:30:51;95304.00;;;3.69;100.00
11810;BME280;5962;41.566;23.734;2023-11-21T00:33:20;95291.72;;;3.70;100.00
11810;BME280;5962;41.566;23.734;2023-11-21T00:35:48;95296.56;;;3.73;100.00
11810;BME280;5962;41.566;23.734;2023-11-21T00:38:17;95299.97;;;3.67;100.00
11810;BME280;5962;41.566;23.734;2023-11-21T00:40:46;95303.41;;;3.61;100.00
11810;BME280;5962;41.566;23.734;2023-11-21T00:43:14;95305.59;;;3.51;100.00
11810;BME280;5962;41.566;23.734;2023-11-21T00:45:42;95304.56;;;3.46;100.00
11810;BME280;5962;41.566;23.734;2023-11-21T00:48:10;95308.78;;;3.40;100.00
11810;BME280;5962;41.566;23.734;2023-11-21T00:50:40;95299.91;;;3.35;100.00
11810;BME280;5962;41.566;23.734;2023-11-21T00:53:08;95308.56;;;3.35;100.00
11810;BME280;5962;41.566;23.734;2023-11-21T00:55:37;95307.56;;;3.36;100.00
11810;BME280;5962;41.566;23.734;2023-11-21T00:58:06;95305.53;;;3.32;100.00
11810;BME280;5962;41.566;23.734;2023-11-21T01:00:34;95301.50;;;3.29;100.00
11810;BME280;5962;41.566;23.734;2023-11-21T01:03:06;95296.88;;;3.31;100.00
11810;BME280;5962;41.566;23.734;2023-11-21T01:05:35;95295.66;;;3.27;100.00
11810;BME280;5962;41.566;23.734;2023-11-21T01:08:03;95298.66;;;3.24;100.00
11810;BME280;5962;41.566;23.734;2023-11-21T01:10:32;95298.47;;;3.19;100.00
11810;BME280;5962;41.566;23.734;2023-11-21T01:13:02;95301.88;;;3.20;100.00
11810;BME280;5962;41.566;23.734;2023-11-21T01:15:31;95299.25;;;3.20;100.00
11810;BME280;5962;41.566;23.734;2023-11-21T01:17:59;95291.22;;;3.15;100.00
11810;BME280;5962;41.566;23.734;2023-11-21T01:20:27;95290.63;;;3.19;100.00
11810;BME280;5962;41.566;23.734;2023-11-21T01:22:55;95300.09;;;3.20;100.00
11810;BME280;5962;41.566;23.734;2023-11-21T01:25:22;95294.03;;;3.20;100.00
11810;BME280;5962;41.566;23.734;2023-11-21T01:27:50;95299.25;;;3.20;100.00
11810;BME280;5962;41.566;23.734;2023-11-21T01:30:20;95287.78;;;3.21;100.00
11810;BME280;5962;41.566;23.734;2023-11-21T01:32:48;95291.22;;;3.21;100.00
11810;BME280;5962;41.566;23.734;2023-11-21T01:35:17;95296.25;;;3.23;100.00
11810;BME280;5962;41.566;23.734;2023-11-21T01:37:45;95289.41;;;3.22;100.00
11810;BME280;5962;41.566;23.734;2023-11-21T01:40:14;95296.47;;;3.21;100.00
11810;BME280;5962;41.566;23.734;2023-11-21T01:42:43;95288.63;;;3.21;100.00
11810;BME280;5962;41.566;23.734;2023-11-21T01:45:13;95298.47;;;3.19;100.00
11810;BME280;5962;41.566;23.734;2023-11-21T01:47:44;95293.63;;;3.23;100.00
11810;BME280;5962;41.566;23.734;2023-11-21T01:50:15;95280.75;;;3.21;100.00
11810;BME280;5962;41.566;23.734;2023-11-21T01:52:45;95282.56;;;3.21;100.00
11810;BME280;5962;41.566;23.734;2023-11-21T01:55:14;95281.16;;;3.25;100.00
11810;BME280;5962;41.566;23.734;2023-11-21T01:57:50;95279.34;;;3.25;100.00
11810;BME280;5962;41.566;23.734;2023-11-21T02:00:18;95280.34;;;3.24;100.00
11810;BME280;5962;41.566;23.734;2023-11-21T02:02:48;95275.53;;;3.28;100.00
11810;BME280;5962;41.566;23.734;2023-11-21T02:05:18;95284.97;;;3.29;100.00
11810;BME280;5962;41.566;23.734;2023-11-21T02:07:46;95281.94;;;3.19;100.00
11810;BME280;5962;41.566;23.734;2023-11-21T02:10:15;95266.44;;;3.11;100.00
11810;BME280;5962;41.566;23.734;2023-11-21T02:12:44;95285.75;;;3.10;100.00
11810;BME280;5962;41.566;23.734;2023-11-21T02:15:12;95286.94;;;3.07;100.00
11810;BME280;5962;41.566;23.734;2023-11-21T02:17:48;95288.97;;;3.05;100.00
11810;BME280;5962;41.566;23.734;2023-11-21T02:20:18;95287.72;;;3.01;100.00
11810;BME280;5962;41.566;23.734;2023-11-21T02:22:50;95289.34;;;3.02;100.00
11810;BME280;5962;41.566;23.734;2023-11-21T02:25:19;95283.91;;;3.04;100.00
11810;BME280;5962;41.566;23.734;2023-11-21T02:27:47;95281.50;;;3.02;100.00
11810;BME280;5962;41.566;23.734;2023-11-21T02:30:15;95276.91;;;3.11;100.00
11810;BME280;5962;41.566;23.734;2023-11-21T02:32:43;95286.56;;;3.17;100.00
11810;BME280;5962;41.566;23.734;2023-11-21T02:35:12;95281.94;;;3.19;100.00
11810;BME280;5962;41.566;23.734;2023-11-21T02:37:40;95283.81;;;3.31;100.00
11810;BME280;5962;41.566;23.734;2023-11-21T02:40:11;95283.78;;;3.25;100.00
11810;BME280;5962;41.566;23.734;2023-11-21T02:42:39;95274.91;;;3.19;100.00
11810;BME280;5962;41.566;23.734;2023-11-21T02:45:08;95274.31;;;3.24;100.00
11810;BME280;5962;41.566;23.734;2023-11-21T02:47:39;95268.06;;;3.25;100.00
11810;BME280;5962;41.566;23.734;2023-11-21T02:50:08;95274.31;;;3.24;100.00
11810;BME280;5962;41.566;23.734;2023-11-21T02:52:36;95273.31;;;3.25;100.00
11810;BME280;5962;41.566;23.734;2023-11-21T02:55:04;95267.69;;;3.21;100.00
11810;BME280;5962;41.566;23.734;2023-11-21T02:57:35;95270.28;;;3.21;100.00
11810;BME280;5962;41.566;23.734;2023-11-21T03:00:04;95278.94;;;3.22;100.00
11810;BME280;5962;41.566;23.734;2023-11-21T03:02:34;95280.75;;;3.21;100.00
11810;BME280;5962;41.566;23.734;2023-11-21T03:05:06;95286.19;;;3.26;100.00
11810;BME280;5962;41.566;23.734;2023-11-21T03:07:36;95274.69;;;3.14;100.00
11810;BME280;5962;41.566;23.734;2023-11-21T03:10:06;95286.75;;;3.09;100.00
11810;BME280;5962;41.566;23.734;2023-11-21T03:12:37;95282.50;;;3.08;100.00
11810;BME280;5962;41.566;23.734;2023-11-21T03:15:06;95290.97;;;3.03;100.00
11810;BME280;5962;41.566;23.734;2023-11-21T03:17:34;95284.28;;;2.94;100.00
11810;BME280;5962;41.566;23.734;2023-11-21T03:20:03;95290.28;;;2.88;100.00
11810;BME280;5962;41.566;23.734;2023-11-21T03:22:31;95282.78;;;2.79;100.00
11810;BME280;5962;41.566;23.734;2023-11-21T03:25:00;95278.16;;;2.75;100.00
11810;BME280;5962;41.566;23.734;2023-11-21T03:27:28;95271.09;;;2.75;100.00
11810;BME280;5962;41.566;23.734;2023-11-21T03:29:57;95279.75;;;2.69;100.00
11810;BME280;5962;41.566;23.734;2023-11-21T03:32:25;95267.03;;;2.66;100.00
11810;BME280;5962;41.566;23.734;2023-11-21T03:34:54;95266.44;;;2.64;100.00
11810;BME280;5962;41.566;23.734;2023-11-21T03:37:23;95275.09;;;2.65;100.00
11810;BME280;5962;41.566;23.734;2023-11-21T03:39:54;95273.84;;;2.61;100.00
11810;BME280;5962;41.566;23.734;2023-11-21T03:42:23;95271.44;;;2.59;100.00
11810;BME280;5962;41.566;23.734;2023-11-21T03:44:52;95266.00;;;2.61;100.00
11810;BME280;5962;41.566;23.734;2023-11-21T03:47:21;95272.06;;;2.61;100.00
11810;BME280;5962;41.566;23.734;2023-11-21T03:49:49;95273.66;;;2.62;100.00
11810;BME280;5962;41.566;23.734;2023-11-21T03:52:17;95274.09;;;2.66;100.00
11810;BME280;5962;41.566;23.734;2023-11-21T03:54:45;95271.47;;;2.66;100.00
11810;BME280;5962;41.566;23.734;2023-11-21T03:57:13;95269.03;;;2.64;100.00
11810;BME280;5962;41.566;23.734;2023-11-21T03:59:42;95267.44;;;2.63;100.00
11810;BME280;5962;41.566;23.734;2023-11-21T04:02:10;95278.88;;;2.62;100.00
11810;BME280;5962;41.566;23.734;2023-11-21T04:04:40;95277.28;;;2.61;100.00
11810;BME280;5962;41.566;23.734;2023-11-21T04:07:08;95285.16;;;2.61;100.00
11810;BME280;5962;41.566;23.734;2023-11-21T04:09:36;95283.53;;;2.60;100.00
11810;BME280;5962;41.566;23.734;2023-11-21T04:12:05;95283.91;;;2.57;100.00
11810;BME280;5962;41.566;23.734;2023-11-21T04:14:33;95288.75;;;2.60;100.00
11810;BME280;5962;41.566;23.734;2023-11-21T04:17:01;95284.31;;;2.61;100.00
11810;BME280;5962;41.566;23.734;2023-11-21T04:19:30;95279.91;;;2.61;100.00
11810;BME280;5962;41.566;23.734;2023-11-21T04:22:00;95264.13;;;2.48;100.00
11810;BME280;5962;41.566;23.734;2023-11-21T04:24:28;95276.69;;;2.59;100.00
11810;BME280;5962;41.566;23.734;2023-11-21T04:26:56;95280.72;;;2.62;100.00
11810;BME280;5962;41.566;23.734;2023-11-21T04:29:24;95277.06;;;2.56;100.00
11810;BME280;5962;41.566;23.734;2023-11-21T04:31:52;95278.06;;;2.55;100.00
11810;BME280;5962;41.566;23.734;2023-11-21T04:34:20;95272.22;;;2.53;100.00
11810;BME280;5962;41.566;23.734;2023-11-21T04:36:49;95290.19;;;2.69;100.00
11810;BME280;5962;41.566;23.734;2023-11-21T04:39:18;95285.75;;;2.70;100.00
11810;BME280;5962;41.566;23.734;2023-11-21T04:41:46;95289.38;;;2.69;100.00
11810;BME280;5962;41.566;23.734;2023-11-21T04:44:14;95283.75;;;2.72;100.00
11810;BME280;5962;41.566;23.734;2023-11-21T04:46:43;95286.00;;;2.75;100.00
11810;BME280;5962;41.566;23.734;2023-11-21T04:49:11;95287.00;;;2.74;100.00
11810;BME280;5962;41.566;23.734;2023-11-21T04:51:39;95284.59;;;2.72;100.00
11810;BME280;5962;41.566;23.734;2023-11-21T04:54:07;95288.00;;;2.73;100.00
11810;BME280;5962;41.566;23.734;2023-11-21T04:56:37;95300.00;;;2.61;100.00
11810;BME280;5962;41.566;23.734;2023-11-21T04:59:05;95292.09;;;2.48;100.00
11810;BME280;5962;41.566;23.734;2023-11-21T05:01:33;95295.63;;;2.34;100.00
11810;BME280;5962;41.566;23.734;2023-11-21T05:04:01;95297.56;;;2.25;100.00
11810;BME280;5962;41.566;23.734;2023-11-21T05:06:29;95300.75;;;2.21;100.00
11810;BME280;5962;41.566;23.734;2023-11-21T05:08:57;95307.19;;;2.18;100.00
11810;BME280;5962;41.566;23.734;2023-11-21T05:11:25;95316.81;;;2.18;100.00
11810;BME280;5962;41.566;23.734;2023-11-21T05:13:55;95309.53;;;2.13;100.00
11810;BME280;5962;41.566;23.734;2023-11-21T05:16:25;95306.97;;;2.20;100.00
11810;BME280;5962;41.566;23.734;2023-11-21T05:18:54;95310.59;;;2.19;100.00
11810;BME280;5962;41.566;23.734;2023-11-21T05:21:27;95316.03;;;2.17;100.00
11810;BME280;5962;41.566;23.734;2023-11-21T05:23:56;95313.44;;;2.24;100.00
11810;BME280;5962;41.566;23.734;2023-11-21T05:26:24;95322.19;;;2.37;100.00
11810;BME280;5962;41.566;23.734;2023-11-21T05:28:52;95327.59;;;2.36;100.00
11810;BME280;5962;41.566;23.734;2023-11-21T05:31:22;95328.06;;;2.46;100.00
11810;BME280;5962;41.566;23.734;2023-11-21T05:33:50;95328.94;;;2.53;100.00
11810;BME280;5962;41.566;23.734;2023-11-21T05:36:18;95322.75;;;2.60;100.00
11810;BME280;5962;41.566;23.734;2023-11-21T05:38:46;95322.16;;;2.65;100.00
11810;BME280;5962;41.566;23.734;2023-11-21T05:41:15;95331.47;;;2.74;100.00
11810;BME280;5962;41.566;23.734;2023-11-21T05:43:43;95325.69;;;2.84;100.00
11810;BME280;5962;41.566;23.734;2023-11-21T05:46:11;95325.34;;;3.00;100.00
11810;BME280;5962;41.566;23.734;2023-11-21T05:48:41;95327.22;;;3.13;100.00
11810;BME280;5962;41.566;23.734;2023-11-21T05:51:10;95328.41;;;3.10;100.00
11810;BME280;5962;41.566;23.734;2023-11-21T05:53:39;95335.91;;;3.20;100.00
11810;BME280;5962;41.566;23.734;2023-11-21T05:56:07;95328.06;;;3.26;100.00
11810;BME280;5962;41.566;23.734;2023-11-21T05:58:35;95328.31;;;3.31;100.00
11810;BME280;5962;41.566;23.734;2023-11-21T06:01:05;95329.13;;;3.45;100.00
11810;BME280;5962;41.566;23.734;2023-11-21T06:03:34;95327.97;;;3.47;100.00
11810;BME280;5962;41.566;23.734;2023-11-21T06:06:04;95324.34;;;3.55;100.00
11810;BME280;5962;41.566;23.734;2023-11-21T06:08:33;95322.94;;;3.59;100.00
11810;BME280;5962;41.566;23.734;2023-11-21T06:11:01;95319.94;;;3.68;100.00
11810;BME280;5962;41.566;23.734;2023-11-21T06:13:29;95329.63;;;3.80;100.00
11810;BME280;5962;41.566;23.734;2023-11-21T06:15:57;95333.88;;;3.81;100.00
11810;BME280;5962;41.566;23.734;2023-11-21T06:18:25;95331.84;;;3.83;100.00
11810;BME280;5962;41.566;23.734;2023-11-21T06:20:53;95329.44;;;3.88;100.00
11810;BME280;5962;41.566;23.734;2023-11-21T06:23:22;95335.88;;;3.79;100.00
11810;BME280;5962;41.566;23.734;2023-11-21T06:25:51;95336.47;;;3.75;100.00
11810;BME280;5962;41.566;23.734;2023-11-21T06:28:19;95339.91;;;3.82;100.00
11810;BME280;5962;41.566;23.734;2023-11-21T06:30:47;95338.31;;;3.94;100.00
11810;BME280;5962;41.566;23.734;2023-11-21T06:33:15;95344.97;;;4.03;100.00
11810;BME280;5962;41.566;23.734;2023-11-21T06:35:43;95347.41;;;4.04;100.00
11810;BME280;5962;41.566;23.734;2023-11-21T06:38:11;95345.19;;;4.14;100.00
11810;BME280;5962;41.566;23.734;2023-11-21T06:40:41;95342.78;;;4.26;100.00
11810;BME280;5962;41.566;23.734;2023-11-21T06:43:09;95354.25;;;4.25;100.00
11810;BME280;5962;41.566;23.734;2023-11-21T06:45:37;95358.06;;;4.22;100.00
11810;BME280;5962;41.566;23.734;2023-11-21T06:48:05;95355.06;;;4.19;100.00
11810;BME280;5962;41.566;23.734;2023-11-21T06:50:33;95363.53;;;4.08;100.00
11810;BME280;5962;41.566;23.734;2023-11-21T06:53:01;95364.91;;;4.04;100.00
11810;BME280;5962;41.566;23.734;2023-11-21T06:55:30;95357.25;;;4.02;100.00
11810;BME280;5962;41.566;23.734;2023-11-21T06:58:00;95358.50;;;4.06;100.00
11810;BME280;5962;41.566;23.734;2023-11-21T07:00:28;95355.06;;;4.19;100.00
11810;BME280;5962;41.566;23.734;2023-11-21T07:02:56;95353.44;;;4.31;100.00
11810;BME280;5962;41.566;23.734;2023-11-21T07:05:24;95353.66;;;4.49;100.00
11810;BME280;5962;41.566;23.734;2023-11-21T07:07:52;95350.41;;;4.60;100.00
11810;BME280;5962;41.566;23.734;2023-11-21T07:10:20;95355.44;;;4.74;100.00
11810;BME280;5962;41.566;23.734;2023-11-21T07:12:48;95348.16;;;4.89;100.00
11810;BME280;5962;41.566;23.734;2023-11-21T07:15:19;95351.13;;;5.05;100.00
11810;BME280;5962;41.566;23.734;2023-11-21T07:17:47;95345.84;;;5.18;100.00
11810;BME280;5962;41.566;23.734;2023-11-21T07:20:15;95341.13;;;5.33;100.00
11810;BME280;5962;41.566;23.734;2023-11-21T07:22:44;95345.47;;;5.52;100.00
11810;BME280;5962;41.566;23.734;2023-11-21T07:25:12;95344.38;;;5.72;100.00
11810;BME280;5962;41.566;23.734;2023-11-21T07:27:40;95336.38;;;5.92;100.00
11810;BME280;5962;41.566;23.734;2023-11-21T07:30:09;95342.75;;;6.09;100.00
11810;BME280;5962;41.566;23.734;2023-11-21T07:32:38;95350.34;;;6.23;100.00
11810;BME280;5962;41.566;23.734;2023-11-21T07:35:08;95349.22;;;6.37;100.00
11810;BME280;5962;41.566;23.734;2023-11-21T07:37:36;95335.38;;;6.48;100.00
11810;BME280;5962;41.566;23.734;2023-11-21T07:40:05;95334.31;;;6.55;100.00
11810;BME280;5962;41.566;23.734;2023-11-21T07:42:35;95329.78;;;6.62;100.00
11810;BME280;5962;41.566;23.734;2023-11-21T07:45:03;95330.53;;;6.69;100.00
11810;BME280;5962;41.566;23.734;2023-11-21T07:47:32;95324.13;;;6.83;100.00
11810;BME280;5962;41.566;23.734;2023-11-21T07:50:02;95330.03;;;6.97;100.00
11810;BME280;5962;41.566;23.734;2023-11-21T07:52:31;95328.44;;;6.96;100.00
11810;BME280;5962;41.566;23.734;2023-11-21T07:54:59;95323.25;;;7.07;100.00
11810;BME280;5962;41.566;23.734;2023-11-21T07:57:27;95343.06;;;7.10;100.00
11810;BME280;5962;41.566;23.734;2023-11-21T07:59:55;95328.66;;;7.12;100.00
11810;BME280;5962;41.566;23.734;2023-11-21T08:02:23;95338.16;;;7.13;100.00
11810;BME280;5962;41.566;23.734;2023-11-21T08:04:52;95341.31;;;7.22;100.00
11810;BME280;5962;41.566;23.734;2023-11-21T08:07:22;95343.59;;;7.36;100.00
11810;BME280;5962;41.566;23.734;2023-11-21T08:09:50;95352.50;;;7.53;100.00
11810;BME280;5962;41.566;23.734;2023-11-21T08:12:18;95344.41;;;7.66;100.00
11810;BME280;5962;41.566;23.734;2023-11-21T08:14:46;95337.38;;;7.78;100.00
11810;BME280;5962;41.566;23.734;2023-11-21T08:17:14;95343.13;;;7.86;100.00
11810;BME280;5962;41.566;23.734;2023-11-21T08:19:43;95340.69;;;8.03;100.00
11810;BME280;5962;41.566;23.734;2023-11-21T08:22:15;95335.88;;;8.11;100.00
11810;BME280;5962;41.566;23.734;2023-11-21T08:24:45;95344.78;;;8.28;100.00
11810;BME280;5962;41.566;23.734;2023-11-21T08:27:14;95340.69;;;8.32;100.00
11810;BME280;5962;41.566;23.734;2023-11-21T08:29:43;95346.53;;;8.45;100.00
11810;BME280;5962;41.566;23.734;2023-11-21T08:32:11;95335.78;;;8.47;100.00
11810;BME280;5962;41.566;23.734;2023-11-21T08:34:39;95335.78;;;8.58;100.00
11810;BME280;5962;41.566;23.734;2023-11-21T08:37:09;95338.19;;;8.71;100.00
11810;BME280;5962;41.566;23.734;2023-11-21T08:39:38;95331.22;;;8.77;100.00
11810;BME280;5962;41.566;23.734;2023-11-21T08:42:10;95335.56;;;8.94;100.00
11810;BME280;5962;41.566;23.734;2023-11-21T08:44:37;95332.56;;;9.14;100.00
11810;BME280;5962;41.566;23.734;2023-11-21T08:47:06;95336.66;;;9.32;100.00
11810;BME280;5962;41.566;23.734;2023-11-21T08:49:34;95333.44;;;9.42;100.00
11810;BME280;5962;41.566;23.734;2023-11-21T08:52:03;95320.66;;;9.50;100.00
11810;BME280;5962;41.566;23.734;2023-11-21T08:54:31;95306.50;;;9.56;100.00
11810;BME280;5962;41.566;23.734;2023-11-21T08:57:01;95311.28;;;9.71;100.00
11810;BME280;5962;41.566;23.734;2023-11-21T08:59:30;95310.28;;;9.88;100.00
11810;BME280;5962;41.566;23.734;2023-11-21T09:01:58;95309.88;;;10.08;98.72
11810;BME280;5962;41.566;23.734;2023-11-21T09:04:26;95303.25;;;10.22;97.75
11810;BME280;5962;41.566;23.734;2023-11-21T09:06:54;95296.91;;;10.23;96.05
11810;BME280;5962;41.566;23.734;2023-11-21T09:09:22;95283.19;;;10.09;96.59
11810;BME280;5962;41.566;23.734;2023-11-21T09:11:51;95278.78;;;10.15;96.67
11810;BME280;5962;41.566;23.734;2023-11-21T09:14:19;95276.88;;;10.27;96.14
11810;BME280;5962;41.566;23.734;2023-11-21T09:16:48;95271.25;;;10.39;95.36
11810;BME280;5962;41.566;23.734;2023-11-21T09:19:17;95278.31;;;10.50;94.09
11810;BME280;5962;41.566;23.734;2023-11-21T09:21:45;95276.50;;;10.51;93.98
11810;BME280;5962;41.566;23.734;2023-11-21T09:24:13;95269.59;;;10.50;94.65
11810;BME280;5962;41.566;23.734;2023-11-21T09:26:41;95261.38;;;10.68;95.17
11810;BME280;5962;41.566;23.734;2023-11-21T09:29:09;95259.66;;;10.78;94.56
11810;BME280;5962;41.566;23.734;2023-11-21T09:31:37;95252.59;;;10.84;94.04
11810;BME280;5962;41.566;23.734;2023-11-21T09:34:06;95249.78;;;10.90;93.91
11810;BME280;5962;41.566;23.734;2023-11-21T09:36:34;95242.06;;;10.89;93.85
11810;BME280;5962;41.566;23.734;2023-11-21T09:39:04;95249.22;;;10.88;94.04
11810;BME280;5962;41.566;23.734;2023-11-21T09:41:42;95241.03;;;10.90;94.06
11810;BME280;5962;41.566;23.734;2023-11-21T09:44:13;95232.09;;;10.96;93.05
11810;BME280;5962;41.566;23.734;2023-11-21T09:46:44;95225.34;;;11.05;92.34
11810;BME280;5962;41.566;23.734;2023-11-21T09:49:18;95217.19;;;11.11;91.89
11810;BME280;5962;41.566;23.734;2023-11-21T09:51:54;95219.41;;;11.19;92.32
11810;BME280;5962;41.566;23.734;2023-11-21T09:54:23;95222.50;;;11.32;91.83
11810;BME280;5962;41.566;23.734;2023-11-21T09:56:53;95221.44;;;11.55;90.95
11810;BME280;5962;41.566;23.734;2023-11-21T09:59:21;95215.03;;;11.72;90.06
11810;BME280;5962;41.566;23.734;2023-11-21T10:01:50;95213.53;;;11.86;89.98
11810;BME280;5962;41.566;23.734;2023-11-21T10:04:20;95204.56;;;11.92;89.16
11810;BME280;5962;41.566;23.734;2023-11-21T10:06:49;95203.03;;;11.96;89.53
11810;BME280;5962;41.566;23.734;2023-11-21T10:09:18;95189.34;;;12.14;86.50
11810;BME280;5962;41.566;23.734;2023-11-21T10:11:47;95194.78;;;12.24;87.28
11810;BME280;5962;41.566;23.734;2023-11-21T10:14:19;95171.38;;;12.21;85.97
11810;BME280;5962;41.566;23.734;2023-11-21T10:16:52;95190.16;;;12.46;84.72
11810;BME280;5962;41.566;23.734;2023-11-21T10:19:23;95186.16;;;12.48;84.96
11810;BME280;5962;41.566;23.734;2023-11-21T10:21:51;95159.25;;;12.35;73.43
11810;BME280;5962;41.566;23.734;2023-11-21T10:24:21;95180.34;;;12.51;72.16
11810;BME280;5962;41.566;23.734;2023-11-21T10:26:49;95168.94;;;12.51;71.91
11810;BME280;5962;41.566;23.734;2023-11-21T10:29:19;95147.59;;;12.41;71.56
11810;BME280;5962;41.566;23.734;2023-11-21T10:31:49;95163.13;;;12.59;71.94
11810;BME280;5962;41.566;23.734;2023-11-21T10:34:19;95155.16;;;12.59;66.70
11810;BME280;5962;41.566;23.734;2023-11-21T10:36:49;95153.09;;;12.71;61.63
11810;BME280;5962;41.566;23.734;2023-11-21T10:39:17;95155.63;;;12.92;60.63
11810;BME280;5962;41.566;23.734;2023-11-21T10:41:46;95157.03;;;13.05;59.09
11810;BME280;5962;41.566;23.734;2023-11-21T10:44:15;95140.31;;;13.19;58.46
11810;BME280;5962;41.566;23.734;2023-11-21T10:46:47;95131.00;;;13.21;57.30
11810;BME280;5962;41.566;23.734;2023-11-21T10:49:17;95134.47;;;13.22;57.04
11810;BME280;5962;41.566;23.734;2023-11-21T10:51:46;95130.25;;;13.31;57.29
11810;BME280;5962;41.566;23.734;2023-11-21T10:54:19;95115.59;;;13.18;56.57
11810;BME280;5962;41.566;23.734;2023-11-21T10:56:49;95117.72;;;13.21;56.92
11810;BME280;5962;41.566;23.734;2023-11-21T10:59:18;95105.19;;;13.17;57.45
11810;BME280;5962;41.566;23.734;2023-11-21T11:01:47;95100.94;;;13.16;57.07
11810;BME280;5962;41.566;23.734;2023-11-21T11:04:19;95064.19;;;12.93;57.75
11810;BME280;5962;41.566;23.734;2023-11-21T11:06:51;95084.97;;;13.16;57.77
11810;BME280;5962;41.566;23.734;2023-11-21T11:09:24;95075.72;;;13.28;57.45
11810;BME280;5962;41.566;23.734;2023-11-21T11:11:52;95066.44;;;13.36;57.37
11810;BME280;5962;41.566;23.734;2023-11-21T11:14:21;95056.31;;;13.48;56.68
11810;BME280;5962;41.566;23.734;2023-11-21T11:16:53;95043.28;;;13.56;56.76
11810;BME280;5962;41.566;23.734;2023-11-21T11:19:22;95042.50;;;13.71;56.29
11810;BME280;5962;41.566;23.734;2023-11-21T11:21:59;95038.75;;;13.72;56.88
11810;BME280;5962;41.566;23.734;2023-11-21T11:24:53;95028.38;;;13.80;56.40
11810;BME280;5962;41.566;23.734;2023-11-21T11:27:33;95035.59;;;13.80;56.04
11810;BME280;5962;41.566;23.734;2023-11-21T11:30:11;95027.59;;;13.60;57.54
11810;BME280;5962;41.566;23.734;2023-11-21T11:32:52;95024.66;;;13.46;58.29
11810;BME280;5962;41.566;23.734;2023-11-21T11:35:26;95021.69;;;13.28;58.85
11810;BME280;5962;41.566;23.734;2023-11-21T11:37:58;95020.66;;;13.34;59.02
11810;BME280;5962;41.566;23.734;2023-11-21T11:40:39;95027.03;;;13.33;59.20
11810;BME280;5962;41.566;23.734;2023-11-21T11:43:08;95025.97;;;13.19;59.52
11810;BME280;5962;41.566;23.734;2023-11-21T11:45:36;95014.50;;;13.14;59.46
11810;BME280;5962;41.566;23.734;2023-11-21T11:48:11;95031.78;;;12.96;60.21
11810;BME280;5962;41.566;23.734;2023-11-21T11:50:52;95034.09;;;12.78;61.30
11810;BME280;5962;41.566;23.734;2023-11-21T11:53:35;95033.75;;;12.64;61.84
11810;BME280;5962;41.566;23.734;2023-11-21T11:56:35;95037.19;;;12.60;61.74
11810;BME280;5962;41.566;23.734;2023-11-21T11:59:05;95031.84;;;12.50;61.82
11810;BME280;5962;41.566;23.734;2023-11-21T12:01:36;95025.94;;;12.38;62.53
11810;BME280;5962;41.566;23.734;2023-11-21T12:04:25;95028.38;;;12.44;62.77
11810;BME280;5962;41.566;23.734;2023-11-21T12:07:01;95027.03;;;12.47;62.66
11810;BME280;5962;41.566;23.734;2023-11-21T12:09:32;95031.81;;;12.45;62.67
11810;BME280;5962;41.566;23.734;2023-11-21T12:12:02;95028.88;;;12.41;62.91
11810;BME280;5962;41.566;23.734;2023-11-21T12:14:30;95019.81;;;12.37;62.87
11810;BME280;5962;41.566;23.734;2023-11-21T12:16:59;95018.50;;;12.35;63.26
11810;BME280;5962;41.566;23.734;2023-11-21T12:19:29;95010.75;;;12.33;63.59
11810;BME280;5962;41.566;23.734;2023-11-21T12:21:57;95006.00;;;12.30;63.72
11810;BME280;5962;41.566;23.734;2023-11-21T12:24:25;95008.34;;;12.22;63.98
11810;BME280;5962;41.566;23.734;2023-11-21T12:26:55;94998.22;;;12.19;64.53
11810;BME280;5962;41.566;23.734;2023-11-21T12:29:24;95006.47;;;12.18;64.72
11810;BME280;5962;41.566;23.734;2023-11-21T12:31:56;94991.59;;;12.17;64.78
11810;BME280;5962;41.566;23.734;2023-11-21T12:34:24;94994.75;;;12.14;64.96
11810;BME280;5962;41.566;23.734;2023-11-21T12:36:53;94980.94;;;12.12;65.13
11810;BME280;5962;41.566;23.734;2023-11-21T12:39:22;94986.50;;;12.10;65.19
11810;BME280;5962;41.566;23.734;2023-11-21T12:41:50;94985.19;;;12.13;65.62
11810;BME280;5962;41.566;23.734;2023-11-21T12:44:18;94986.81;;;12.19;65.69
11810;BME280;5962;41.566;23.734;2023-11-21T12:46:48;94973.28;;;12.20;65.35
11810;BME280;5962;41.566;23.734;2023-11-21T12:49:17;94975.41;;;12.23;65.67
11810;BME280;5962;41.566;23.734;2023-11-21T12:51:45;94966.09;;;12.20;65.51
11810;BME280;5962;41.566;23.734;2023-11-21T12:54:14;94972.50;;;12.20;65.67
11810;BME280;5962;41.566;23.734;2023-11-21T12:56:45;94969.03;;;12.19;66.03
11810;BME280;5962;41.566;23.734;2023-11-21T12:59:15;94969.03;;;12.19;65.87
11810;BME280;5962;41.566;23.734;2023-11-21T13:01:44;94960.00;;;12.20;66.20
11810;BME280;5962;41.566;23.734;2023-11-21T13:04:14;94963.41;;;12.11;66.35
11810;BME280;5962;41.566;23.734;2023-11-21T13:06:42;94962.31;;;12.07;66.71
11810;BME280;5962;41.566;23.734;2023-11-21T13:09:10;94967.09;;;12.10;66.79
11810;BME280;5962;41.566;23.734;2023-11-21T13:11:39;94961.81;;;12.10;66.86